Time;durP1;ratioP1;P1;durP2;ratioP2;P2;SDS_P1;SDS_P2;PMS_P1;PMS_P2;Temp;Humidity;BMP_temperature;BMP_pressure;BME280_temperature;BME280_humidity;BME280_pressure;Samples;Min_cycle;Max_cycle;Signal;HPM_P1;HPM_P2
2022/03/06 00:00:49;;;;;;;;;;;;;;;0.65;100.00;102511.00;5041629;28;19928;-69
2022/03/06 00:03:14;;;;;;;;;;;;;;;0.59;100.00;102521.31;5044352;28;19917;-69
2022/03/06 00:05:40;;;;;;;;;;;;;;;0.61;100.00;102523.13;5043258;28;19964;-69
2022/03/06 00:08:06;;;;;;;;;;;;;;;0.63;100.00;102520.56;5041274;28;19917;-69
2022/03/06 00:10:31;;;;;;;;;;;;;;;0.60;100.00;102515.25;5042807;28;19917;-69
2022/03/06 00:12:56;;;;;;;;;;;;;;;0.60;100.00;102528.34;5045589;28;20472;-68
2022/03/06 00:15:22;;;;;;;;;;;;;;;0.62;100.00;102524.88;5047021;28;19917;-69
2022/03/06 00:17:48;;;;;;;;;;;;;;;0.59;100.00;102529.16;5043226;28;19917;-68
2022/03/06 00:20:13;;;;;;;;;;;;;;;0.59;100.00;102529.16;5046321;28;19917;-68
2022/03/06 00:22:38;;;;;;;;;;;;;;;0.47;100.00;102537.59;5045601;28;19917;-69
2022/03/06 00:25:04;;;;;;;;;;;;;;;0.39;100.00;102535.63;5057215;28;19999;-69
2022/03/06 00:27:29;;;;;;;;;;;;;;;0.34;100.00;102529.38;5042897;28;19917;-69
2022/03/06 00:29:55;;;;;;;;;;;;;;;0.34;100.00;102532.91;5046070;28;19917;-69
2022/03/06 00:32:20;;;;;;;;;;;;;;;0.39;100.00;102536.53;5042441;28;19921;-68
2022/03/06 00:34:48;;;;;;;;;;;;;;;0.42;100.00;102535.69;5037277;28;19927;-68
2022/03/06 00:37:13;;;;;;;;;;;;;;;0.31;100.00;102530.22;5053859;28;19916;-68
2022/03/06 00:39:38;;;;;;;;;;;;;;;0.35;100.00;102528.56;5037586;28;19970;-68
2022/03/06 00:42:03;;;;;;;;;;;;;;;0.23;100.00;102536.06;5037400;28;20008;-68
2022/03/06 00:44:28;;;;;;;;;;;;;;;0.24;100.00;102538.72;5037404;28;20427;-68
2022/03/06 00:46:54;;;;;;;;;;;;;;;0.25;100.00;102531.78;5037838;28;19917;-68
2022/03/06 00:49:19;;;;;;;;;;;;;;;0.26;100.00;102534.44;5053603;28;19917;-68
2022/03/06 00:51:44;;;;;;;;;;;;;;;0.20;100.00;102539.50;5037101;28;19971;-68
2022/03/06 00:54:09;;;;;;;;;;;;;;;0.23;100.00;102536.97;5053567;28;19921;-69
2022/03/06 00:56:35;;;;;;;;;;;;;;;0.16;100.00;102542.84;5038351;28;20367;-68
2022/03/06 00:59:00;;;;;;;;;;;;;;;0.11;100.00;102549.69;5037205;28;19918;-68
2022/03/06 01:01:25;;;;;;;;;;;;;;;0.15;100.00;102554.16;5037989;28;20389;-69
2022/03/06 01:03:50;;;;;;;;;;;;;;;0.03;100.00;102552.09;5036652;28;20000;-68
2022/03/06 01:06:15;;;;;;;;;;;;;;;0.12;100.00;102558.41;5053620;28;19917;-68
2022/03/06 01:08:41;;;;;;;;;;;;;;;0.08;100.00;102556.56;5037091;28;19917;-68
2022/03/06 01:11:06;;;;;;;;;;;;;;;0.08;100.00;102565.28;5036937;28;20284;-69
2022/03/06 01:13:31;;;;;;;;;;;;;;;0.02;100.00;102557.28;5037084;28;19924;-69
2022/03/06 01:15:56;;;;;;;;;;;;;;;0.07;100.00;102563.50;5053416;28;19921;-69
2022/03/06 01:18:23;;;;;;;;;;;;;;;0.07;100.00;102567.84;5037338;28;19924;-69
2022/03/06 01:20:48;;;;;;;;;;;;;;;0.05;100.00;102569.56;5038285;28;19959;-69
2022/03/06 01:23:13;;;;;;;;;;;;;;;0.03;100.00;102565.16;5036843;28;19917;-69
2022/03/06 01:25:39;;;;;;;;;;;;;;;0.04;100.00;102568.66;5053339;28;19941;-69
2022/03/06 01:28:04;;;;;;;;;;;;;;;0.03;100.00;102571.22;5036653;28;19944;-69
2022/03/06 01:30:30;;;;;;;;;;;;;;;0.11;100.00;102569.72;5037980;28;20285;-69
2022/03/06 01:32:55;;;;;;;;;;;;;;;0.01;100.00;102581.63;5039270;28;19924;-69
2022/03/06 01:35:21;;;;;;;;;;;;;;;0.00;100.00;102578.13;5057335;28;19921;-69
2022/03/06 01:37:46;;;;;;;;;;;;;;;-0.03;100.00;102579.78;5056696;28;19924;-69
2022/03/06 01:40:30;;;;;;;;;;;;;;;-0.05;100.00;102579.72;5056988;28;20058;-69
2022/03/06 01:42:56;;;;;;;;;;;;;;;-0.05;100.00;102584.94;5058013;28;19975;-69
2022/03/06 01:45:23;;;;;;;;;;;;;;;-0.01;100.00;102575.47;5058263;28;19917;-69
2022/03/06 01:47:49;;;;;;;;;;;;;;;-0.04;100.00;102589.34;5058848;28;19974;-69
2022/03/06 01:50:16;;;;;;;;;;;;;;;-0.05;100.00;102587.56;5057539;28;19917;-69
2022/03/06 01:52:42;;;;;;;;;;;;;;;-0.03;100.00;102591.09;5037988;28;19933;-69
2022/03/06 01:55:07;;;;;;;;;;;;;;;0.03;100.00;102586.91;5036778;28;19917;-69
2022/03/06 01:57:32;;;;;;;;;;;;;;;-0.04;100.00;102578.91;5038275;28;19917;-69
2022/03/06 01:59:59;;;;;;;;;;;;;;;0.03;100.00;102584.28;5036446;28;19921;-69
2022/03/06 02:02:25;;;;;;;;;;;;;;;0.06;100.00;102581.75;5037835;28;19917;-69
2022/03/06 02:04:50;;;;;;;;;;;;;;;0.10;100.00;102576.66;5036949;28;19924;-69
2022/03/06 02:07:15;;;;;;;;;;;;;;;0.06;100.00;102586.97;5037190;28;19978;-69
2022/03/06 02:09:41;;;;;;;;;;;;;;;0.14;100.00;102585.47;5037330;28;19952;-69
2022/03/06 02:12:21;;;;;;;;;;;;;;;0.20;100.00;102580.41;5038650;28;19917;-69
2022/03/06 02:14:47;;;;;;;;;;;;;;;0.21;100.00;102583.06;5039165;28;19952;-69
2022/03/06 02:17:12;;;;;;;;;;;;;;;0.22;100.00;102578.72;5039431;28;19971;-69
2022/03/06 02:19:58;;;;;;;;;;;;;;;0.22;100.00;102584.81;5037714;28;19921;-69
2022/03/06 02:22:24;;;;;;;;;;;;;;;0.22;100.00;102582.19;5051576;28;19921;-69
2022/03/06 02:24:49;;;;;;;;;;;;;;;0.22;100.00;102589.19;5057530;28;19920;-69
2022/03/06 02:27:15;;;;;;;;;;;;;;;0.33;100.00;102582.50;5057167;28;20294;-69
2022/03/06 02:29:41;;;;;;;;;;;;;;;0.24;100.00;102577.91;5058155;28;19917;-69
2022/03/06 02:32:10;;;;;;;;;;;;;;;0.19;100.00;102589.09;5056358;28;19924;-69
2022/03/06 02:34:36;;;;;;;;;;;;;;;0.25;100.00;102582.31;5056117;28;19920;-69
2022/03/06 02:37:02;;;;;;;;;;;;;;;0.20;100.00;102583.00;5056956;28;20317;-69
2022/03/06 02:39:27;;;;;;;;;;;;;;;0.26;100.00;102585.78;5057914;28;19920;-69
2022/03/06 02:41:52;;;;;;;;;;;;;;;0.28;100.00;102586.72;5056565;28;20020;-69
2022/03/06 02:44:17;;;;;;;;;;;;;;;0.33;100.00;102585.97;5056269;28;19927;-69
2022/03/06 02:46:46;;;;;;;;;;;;;;;0.41;100.00;102584.47;5056362;28;19917;-69
2022/03/06 02:49:13;;;;;;;;;;;;;;;0.54;100.00;102596.13;5057349;28;19917;-69
2022/03/06 02:51:38;;;;;;;;;;;;;;;0.49;100.00;102595.13;5058172;28;19923;-69
2022/03/06 02:54:03;;;;;;;;;;;;;;;0.41;100.00;102594.91;5058030;28;20374;-69
2022/03/06 02:56:28;;;;;;;;;;;;;;;0.45;100.00;102598.50;5056967;28;19999;-69
2022/03/06 02:58:54;;;;;;;;;;;;;;;0.51;100.00;102596.03;5055840;28;20293;-69
2022/03/06 03:01:20;;;;;;;;;;;;;;;0.53;100.00;102602.19;5055491;28;20381;-69
2022/03/06 03:03:45;;;;;;;;;;;;;;;0.43;100.00;102594.94;5057234;28;19917;-69
2022/03/06 03:06:10;;;;;;;;;;;;;;;0.42;100.00;102598.41;5057337;28;19924;-69
2022/03/06 03:08:35;;;;;;;;;;;;;;;0.41;100.00;102596.66;5056265;28;19964;-69
2022/03/06 03:11:01;;;;;;;;;;;;;;;0.40;100.00;102595.78;5055506;28;19987;-69
2022/03/06 03:13:26;;;;;;;;;;;;;;;0.41;100.00;102599.28;5057576;28;19923;-69
2022/03/06 03:15:53;;;;;;;;;;;;;;;0.57;100.00;102604.06;5056401;28;19917;-69
2022/03/06 03:18:18;;;;;;;;;;;;;;;0.43;100.00;102606.31;5056996;28;20293;-69
2022/03/06 03:20:43;;;;;;;;;;;;;;;0.39;100.00;102608.78;5057093;28;19924;-69
2022/03/06 03:23:08;;;;;;;;;;;;;;;0.33;100.00;102611.25;5057303;28;19916;-69
2022/03/06 03:25:33;;;;;;;;;;;;;;;0.28;100.00;102608.53;5057258;28;19917;-69
2022/03/06 03:27:59;;;;;;;;;;;;;;;0.26;100.00;102619.75;5056700;28;19917;-69
2022/03/06 03:30:24;;;;;;;;;;;;;;;0.24;100.00;102616.25;5056718;28;19924;-69
2022/03/06 03:32:49;;;;;;;;;;;;;;;0.16;100.00;102613.38;5055747;28;19921;-69
2022/03/06 03:35:14;;;;;;;;;;;;;;;0.09;100.00;102613.19;5053791;28;19932;-69
2022/03/06 03:37:39;;;;;;;;;;;;;;;0.11;100.00;102616.75;5056290;28;19917;-69
2022/03/06 03:40:06;;;;;;;;;;;;;;;0.02;100.00;102619.97;5054651;28;19917;-69
2022/03/06 03:42:31;;;;;;;;;;;;;;;0.08;100.00;102611.44;5054940;28;19927;-69
2022/03/06 03:44:56;;;;;;;;;;;;;;;0.06;100.00;102618.31;5055205;28;19925;-69
2022/03/06 03:47:21;;;;;;;;;;;;;;;0.01;100.00;102618.19;5073216;28;19917;-69
2022/03/06 03:49:47;;;;;;;;;;;;;;;-0.10;100.00;102623.13;5060558;28;20284;-69
2022/03/06 03:52:12;;;;;;;;;;;;;;;-0.14;100.00;102616.03;5059717;28;19952;-69
2022/03/06 03:54:37;;;;;;;;;;;;;;;-0.16;100.00;102622.94;5060791;28;19925;-69
2022/03/06 03:57:02;;;;;;;;;;;;;;;-0.24;100.00;102621.81;5059838;28;19916;-69
2022/03/06 03:59:28;;;;;;;;;;;;;;;-0.28;100.00;102622.59;5059979;28;19975;-69
2022/03/06 04:01:53;;;;;;;;;;;;;;;-0.30;100.00;102626.00;5058770;28;19940;-69
2022/03/06 04:04:18;;;;;;;;;;;;;;;-0.38;100.00;102624.88;5058874;28;19924;-69
2022/03/06 04:06:43;;;;;;;;;;;;;;;-0.46;100.00;102632.47;5060107;28;19917;-69
2022/03/06 04:09:09;;;;;;;;;;;;;;;-0.41;100.00;102628.28;5060218;28;19924;-69
2022/03/06 04:11:34;;;;;;;;;;;;;;;-0.45;100.00;102633.34;5059395;28;19916;-69
2022/03/06 04:13:59;;;;;;;;;;;;;;;-0.52;100.00;102631.41;5060868;28;19917;-69
2022/03/06 04:16:24;;;;;;;;;;;;;;;-0.51;100.00;102627.97;5060839;28;19917;-69
2022/03/06 04:18:50;;;;;;;;;;;;;;;-0.63;100.00;102632.81;5060644;28;19967;-69
2022/03/06 04:21:15;;;;;;;;;;;;;;;-0.71;100.00;102644.72;5076500;28;19916;-69
2022/03/06 04:23:40;;;;;;;;;;;;;;;-0.72;100.00;102638.63;5060059;28;20361;-69
2022/03/06 04:26:05;;;;;;;;;;;;;;;-0.79;100.00;102648.81;5058743;28;19996;-68
2022/03/06 04:28:31;;;;;;;;;;;;;;;-0.73;100.00;102646.38;5060400;28;19917;-68
2022/03/06 04:30:57;;;;;;;;;;;;;;;-0.61;100.00;102662.41;5060379;28;20258;-68
2022/03/06 04:33:22;;;;;;;;;;;;;;;-0.61;100.00;102663.31;5060010;28;19921;-69
2022/03/06 04:35:47;;;;;;;;;;;;;;;-0.75;100.00;102662.00;5060472;28;19928;-68
2022/03/06 04:38:12;;;;;;;;;;;;;;;-0.81;100.00;102664.41;5059710;28;20370;-69
2022/03/06 04:40:37;;;;;;;;;;;;;;;-0.86;100.00;102657.25;5060201;28;19920;-69
2022/03/06 04:43:03;;;;;;;;;;;;;;;-0.94;100.00;102669.16;5059911;28;19917;-68
2022/03/06 04:45:29;;;;;;;;;;;;;;;-1.01;100.00;102665.47;5060691;28;20336;-68
2022/03/06 04:47:54;;;;;;;;;;;;;;;-1.10;100.00;102664.31;5060048;28;19923;-68
2022/03/06 04:50:19;;;;;;;;;;;;;;;-1.01;100.00;102675.91;5060345;28;19923;-69
2022/03/06 04:52:44;;;;;;;;;;;;;;;-1.06;100.00;102687.91;5059567;28;20278;-68
2022/03/06 04:55:10;;;;;;;;;;;;;;;-1.03;100.00;102685.41;5075454;28;20408;-68
2022/03/06 04:57:35;;;;;;;;;;;;;;;-1.07;100.00;102685.25;5059809;28;19947;-68
2022/03/06 05:00:00;;;;;;;;;;;;;;;-1.10;100.00;102685.16;5058798;28;19917;-68
2022/03/06 05:02:25;;;;;;;;;;;;;;;-1.06;100.00;102693.13;5058312;28;20372;-68
2022/03/06 05:04:51;;;;;;;;;;;;;;;-1.16;100.00;102696.25;5059449;28;20285;-68
2022/03/06 05:07:16;;;;;;;;;;;;;;;-1.21;100.00;102692.59;5060402;28;19917;-68
2022/03/06 05:09:41;;;;;;;;;;;;;;;-1.12;100.00;102698.13;5059480;28;19960;-69
2022/03/06 05:12:06;;;;;;;;;;;;;;;-1.08;100.00;102700.00;5059675;28;20015;-68
2022/03/06 05:14:32;;;;;;;;;;;;;;;-1.17;100.00;102704.03;5075469;28;20731;-68
2022/03/06 05:16:57;;;;;;;;;;;;;;;-1.26;100.00;102703.72;5060234;28;19975;-69
2022/03/06 05:19:22;;;;;;;;;;;;;;;-1.36;100.00;102707.72;5059910;28;19924;-68
2022/03/06 05:21:47;;;;;;;;;;;;;;;-1.42;100.00;102701.41;5058759;28;19971;-69
2022/03/06 05:24:13;;;;;;;;;;;;;;;-1.47;100.00;102706.44;5059923;28;20476;-68
2022/03/06 05:26:38;;;;;;;;;;;;;;;-1.41;100.00;102717.09;5060168;28;19977;-68
2022/03/06 05:29:04;;;;;;;;;;;;;;;-1.48;100.00;102712.47;5060486;28;19956;-69
2022/03/06 05:31:29;;;;;;;;;;;;;;;-1.42;100.00;102714.44;5059672;28;19917;-68
2022/03/06 05:33:55;;;;;;;;;;;;;;;-1.52;100.00;102710.59;5059722;28;19927;-69
2022/03/06 05:36:20;;;;;;;;;;;;;;;-1.61;100.00;102726.78;5059583;28;20419;-68
2022/03/06 05:38:45;;;;;;;;;;;;;;;-1.61;100.00;102720.72;5059918;28;19917;-68
2022/03/06 05:41:10;;;;;;;;;;;;;;;-1.54;100.00;102733.09;5058249;28;20281;-68
2022/03/06 05:43:35;;;;;;;;;;;;;;;-1.62;100.00;102739.75;5060028;28;20020;-68
2022/03/06 05:46:02;;;;;;;;;;;;;;;-1.67;100.00;102733.50;5059926;28;20002;-68
2022/03/06 05:48:27;;;;;;;;;;;;;;;-1.64;100.00;102746.66;5074764;28;19921;-69
2022/03/06 05:50:52;;;;;;;;;;;;;;;-1.70;100.00;102743.78;5060213;28;19917;-68
2022/03/06 05:53:18;;;;;;;;;;;;;;;-1.71;100.00;102752.44;5059918;28;19928;-69
2022/03/06 05:55:43;;;;;;;;;;;;;;;-1.64;100.00;102754.47;5057879;28;19917;-68
2022/03/06 05:58:08;;;;;;;;;;;;;;;-1.68;100.00;102762.97;5058587;28;19927;-69
2022/03/06 06:00:33;;;;;;;;;;;;;;;-1.67;100.00;102768.25;5059976;28;19928;-68
2022/03/06 06:02:59;;;;;;;;;;;;;;;-1.63;100.00;102769.25;5054823;28;20019;-69
2022/03/06 06:05:24;;;;;;;;;;;;;;;-1.69;100.00;102766.41;5049392;28;19963;-69
2022/03/06 06:07:50;;;;;;;;;;;;;;;-1.75;100.00;102774.88;5049332;28;19917;-69
2022/03/06 06:10:16;;;;;;;;;;;;;;;-1.66;100.00;102777.84;5057067;28;19985;-69
2022/03/06 06:12:42;;;;;;;;;;;;;;;-1.48;100.00;102790.63;5057848;28;19916;-69
2022/03/06 06:15:14;;;;;;;;;;;;;;;-1.47;100.00;102787.22;5057205;28;20000;-73
2022/03/06 06:17:40;;;;;;;;;;;;;;;-1.48;100.00;102790.63;5060450;28;20396;-68
2022/03/06 06:20:07;;;;;;;;;;;;;;;-1.40;100.00;102791.81;5062078;28;19968;-68
2022/03/06 06:22:34;;;;;;;;;;;;;;;-1.40;100.00;102799.63;5055043;28;20394;-68
2022/03/06 06:25:00;;;;;;;;;;;;;;;-1.38;100.00;102791.88;5054348;28;19926;-68
2022/03/06 06:27:26;;;;;;;;;;;;;;;-1.30;100.00;102800.84;5052517;28;19918;-69
2022/03/06 06:29:51;;;;;;;;;;;;;;;-1.18;100.00;102807.41;5051864;28;19978;-69
2022/03/06 06:32:16;;;;;;;;;;;;;;;-1.18;100.00;102814.34;5055798;28;19964;-69
2022/03/06 06:34:42;;;;;;;;;;;;;;;-1.27;100.00;102807.06;5060792;28;20079;-69
2022/03/06 06:37:13;;;;;;;;;;;;;;;-1.25;100.00;102821.06;5057234;28;20018;-70
2022/03/06 06:39:38;;;;;;;;;;;;;;;-1.20;100.00;102814.31;5052284;28;19973;-68
2022/03/06 06:42:11;;;;;;;;;;;;;;;-1.14;100.00;102814.50;5055973;28;19916;-68
2022/03/06 06:44:36;;;;;;;;;;;;;;;-1.20;100.00;102813.41;5066740;28;19928;-68
2022/03/06 06:47:02;;;;;;;;;;;;;;;-0.98;100.00;102822.06;5043209;28;20301;-68
2022/03/06 06:49:30;;;;;;;;;;;;;;;-0.98;100.00;102821.16;5053881;28;20444;-68
2022/03/06 06:51:55;;;;;;;;;;;;;;;-0.93;100.00;102819.59;5055616;28;19925;-69
2022/03/06 06:54:20;;;;;;;;;;;;;;;-0.90;100.00;102823.19;5052441;28;19921;-68
2022/03/06 06:56:45;;;;;;;;;;;;;;;-0.96;100.00;102815.16;5064146;28;19920;-69
2022/03/06 06:59:11;;;;;;;;;;;;;;;-0.93;100.00;102823.06;5050545;28;20470;-69
2022/03/06 07:01:36;;;;;;;;;;;;;;;-0.93;100.00;102819.59;5052549;28;19971;-69
2022/03/06 07:04:02;;;;;;;;;;;;;;;-0.94;100.00;102823.03;5061592;28;19959;-69
2022/03/06 07:06:27;;;;;;;;;;;;;;;-0.82;100.00;102831.31;5052646;28;19928;-69
2022/03/06 07:08:52;;;;;;;;;;;;;;;-0.81;100.00;102826.13;5067035;28;19917;-69
2022/03/06 07:11:17;;;;;;;;;;;;;;;-0.82;100.00;102828.69;5063184;28;19920;-69
2022/03/06 07:13:43;;;;;;;;;;;;;;;-0.82;100.00;102832.16;5059621;28;19928;-71
2022/03/06 07:16:08;;;;;;;;;;;;;;;-0.70;100.00;102827.41;5061684;28;19982;-69
2022/03/06 07:18:33;;;;;;;;;;;;;;;-0.66;100.00;102825.78;5065412;28;19917;-69
2022/03/06 07:20:58;;;;;;;;;;;;;;;-0.54;100.00;102840.13;5058358;28;20019;-70
2022/03/06 07:23:23;;;;;;;;;;;;;;;-0.41;100.00;102837.06;5056311;28;20000;-69
2022/03/06 07:25:49;;;;;;;;;;;;;;;-0.37;100.00;102836.38;5060251;28;19917;-69
2022/03/06 07:28:14;;;;;;;;;;;;;;;-0.28;100.00;102843.59;5056822;28;20378;-72
2022/03/06 07:30:39;;;;;;;;;;;;;;;-0.20;100.00;102845.63;5056497;28;19917;-70
2022/03/06 07:33:05;;;;;;;;;;;;;;;-0.08;100.00;102846.00;5055788;28;20392;-69
2022/03/06 07:35:31;;;;;;;;;;;;;;;-0.01;100.00;102847.09;5062266;28;19917;-69
2022/03/06 07:37:56;;;;;;;;;;;;;;;0.12;100.00;102848.38;5066427;28;19917;-70
2022/03/06 07:40:22;;;;;;;;;;;;;;;0.20;100.00;102845.19;5058657;28;19918;-70
2022/03/06 07:42:47;;;;;;;;;;;;;;;0.28;100.00;102842.78;5053738;28;19959;-69
2022/03/06 07:45:13;;;;;;;;;;;;;;;0.32;100.00;102847.25;5057233;28;19917;-69
2022/03/06 07:47:38;;;;;;;;;;;;;;;0.44;100.00;102839.81;5059556;28;20410;-70
2022/03/06 07:50:04;;;;;;;;;;;;;;;0.46;100.00;102841.63;5059524;28;19927;-69
2022/03/06 07:52:29;;;;;;;;;;;;;;;0.56;100.00;102829.72;5054254;28;20017;-68
2022/03/06 07:54:55;;;;;;;;;;;;;;;0.70;100.00;102831.88;5056539;28;20297;-69
2022/03/06 07:57:20;;;;;;;;;;;;;;;0.70;100.00;102826.66;5061383;28;19932;-71
2022/03/06 07:59:45;;;;;;;;;;;;;;;0.71;100.00;102827.56;5054518;28;19924;-70
2022/03/06 08:02:10;;;;;;;;;;;;;;;0.81;100.00;102830.47;5052245;28;19924;-69
2022/03/06 08:04:36;;;;;;;;;;;;;;;0.92;100.00;102833.38;5053869;28;20008;-71
2022/03/06 08:07:01;;;;;;;;;;;;;;;0.94;100.00;102831.69;5032944;28;20404;-73
2022/03/06 08:09:26;;;;;;;;;;;;;;;1.01;100.00;102831.03;5050868;28;20011;-71
2022/03/06 08:11:52;;;;;;;;;;;;;;;1.03;100.00;102831.94;5039031;28;19968;-72
2022/03/06 08:14:17;;;;;;;;;;;;;;;1.09;100.00;102838.25;5053838;28;20302;-71
2022/03/06 08:16:42;;;;;;;;;;;;;;;1.17;100.00;102846.28;5057331;28;19925;-70
2022/03/06 08:19:07;;;;;;;;;;;;;;;1.21;100.00;102842.94;5054616;28;19920;-72
2022/03/06 08:21:33;;;;;;;;;;;;;;;1.22;100.00;102845.59;5058672;28;19988;-72
2022/03/06 08:23:58;;;;;;;;;;;;;;;1.38;100.00;102844.25;5050392;28;19925;-70
2022/03/06 08:26:23;;;;;;;;;;;;;;;1.43;100.00;102834.81;5051143;28;19917;-72
2022/03/06 08:28:49;;;;;;;;;;;;;;;1.45;100.00;102844.44;5038211;28;19925;-70
2022/03/06 08:31:14;;;;;;;;;;;;;;;1.52;100.00;102850.75;5051653;28;19992;-71
2022/03/06 08:33:39;;;;;;;;;;;;;;;1.62;100.00;102852.75;5049203;28;19989;-71
2022/03/06 08:36:04;;;;;;;;;;;;;;;1.67;100.00;102845.03;5046364;28;19927;-70
2022/03/06 08:38:30;;;;;;;;;;;;;;;1.71;100.00;102837.28;5053375;28;19978;-70
2022/03/06 08:40:55;;;;;;;;;;;;;;;1.75;100.00;102840.88;5047778;28;19917;-70
2022/03/06 08:43:20;;;;;;;;;;;;;;;1.75;100.00;102849.59;5044702;28;19952;-69
2022/03/06 08:45:45;;;;;;;;;;;;;;;1.84;100.00;102844.59;5046555;28;19921;-68
2022/03/06 08:48:11;;;;;;;;;;;;;;;1.99;100.00;102844.06;5042801;28;20377;-69
2022/03/06 08:50:36;;;;;;;;;;;;;;;2.03;100.00;102845.91;5045413;28;19991;-69
2022/03/06 08:53:01;;;;;;;;;;;;;;;2.06;100.00;102845.97;5045532;28;20285;-68
2022/03/06 08:55:27;;;;;;;;;;;;;;;2.08;100.00;102837.28;5046296;28;19924;-69
2022/03/06 08:57:52;;;;;;;;;;;;;;;2.16;100.00;102838.38;5070722;28;19917;-69
2022/03/06 09:00:17;;;;;;;;;;;;;;;2.14;100.00;102840.09;5058491;28;19983;-68
2022/03/06 09:02:42;;;;;;;;;;;;;;;2.25;100.00;102837.72;5057396;28;20007;-68
2022/03/06 09:05:08;;;;;;;;;;;;;;;2.31;100.00;102848.31;5043915;28;20362;-68
2022/03/06 09:07:33;;;;;;;;;;;;;;;2.34;100.00;102848.38;5057393;28;19924;-68
2022/03/06 09:09:58;;;;;;;;;;;;;;;2.46;100.00;102849.56;5055810;28;19925;-68
2022/03/06 09:12:26;;;;;;;;;;;;;;;2.47;100.00;102846.09;5047808;28;20023;-76
2022/03/06 09:14:51;;;;;;;;;;;;;;;2.48;100.00;102841.72;5050585;28;19924;-68
2022/03/06 09:17:17;;;;;;;;;;;;;;;2.55;100.00;102841.00;5053276;28;20297;-68
2022/03/06 09:19:42;;;;;;;;;;;;;;;2.57;100.00;102837.56;5056713;28;19967;-69
2022/03/06 09:22:07;;;;;;;;;;;;;;;2.67;100.00;102838.63;5056319;28;20024;-69
2022/03/06 09:24:32;;;;;;;;;;;;;;;2.83;100.00;102836.38;5050622;28;19972;-69
2022/03/06 09:26:58;;;;;;;;;;;;;;;2.87;100.00;102835.56;5055592;28;19995;-69
2022/03/06 09:29:23;;;;;;;;;;;;;;;2.93;100.00;102834.84;5054086;28;20004;-69
2022/03/06 09:31:48;;;;;;;;;;;;;;;2.95;100.00;102838.34;5053247;28;19972;-69
2022/03/06 09:34:13;;;;;;;;;;;;;;;2.92;100.00;102833.03;5056791;28;19921;-71
2022/03/06 09:36:38;;;;;;;;;;;;;;;2.97;100.00;102834.91;5052285;28;19916;-70
2022/03/06 09:39:04;;;;;;;;;;;;;;;2.98;100.00;102836.66;5058104;28;19927;-69
2022/03/06 09:41:30;;;;;;;;;;;;;;;2.98;100.00;102836.66;5049410;28;19986;-69
2022/03/06 09:43:56;;;;;;;;;;;;;;;2.98;100.00;102841.03;5054397;28;19921;-69
2022/03/06 09:46:22;;;;;;;;;;;;;;;2.98;100.00;102834.03;5070735;28;19917;-69
2022/03/06 09:48:47;;;;;;;;;;;;;;;3.03;100.00;102840.28;5050710;28;19940;-69
2022/03/06 09:51:12;;;;;;;;;;;;;;;3.17;100.00;102841.44;5054645;28;19967;-69
2022/03/06 09:53:37;;;;;;;;;;;;;;;3.17;100.00;102833.56;5051651;28;19925;-69
2022/03/06 09:56:03;;;;;;;;;;;;;;;3.29;100.00;102843.41;5045797;28;20011;-69
2022/03/06 09:58:28;;;;;;;;;;;;;;;3.22;100.00;102836.25;5056076;28;19944;-69
2022/03/06 10:00:53;;;;;;;;;;;;;;;3.25;100.00;102833.69;5047045;28;19923;-69
2022/03/06 10:03:20;;;;;;;;;;;;;;;3.39;100.00;102841.84;5051139;28;20300;-69
2022/03/06 10:05:46;;;;;;;;;;;;;;;3.45;100.00;102840.19;5053567;28;19917;-68
2022/03/06 10:08:11;;;;;;;;;;;;;;;3.40;100.00;102839.25;5053284;28;19997;-68
2022/03/06 10:10:37;;;;;;;;;;;;;;;3.49;100.00;102834.16;5041184;28;19905;-69
2022/03/06 10:13:06;;;;;;;;;;;;;;;3.60;100.00;102835.22;5050161;28;19931;-68
2022/03/06 10:15:31;;;;;;;;;;;;;;;3.48;100.00;102834.13;5042633;28;19917;-69
2022/03/06 10:18:00;;;;;;;;;;;;;;;3.46;100.00;102834.09;5044546;28;20265;-72
2022/03/06 10:20:28;;;;;;;;;;;;;;;3.48;100.00;102839.38;5040617;28;20015;-69
2022/03/06 10:22:53;;;;;;;;;;;;;;;3.53;100.00;102845.59;5043040;28;20103;-69
2022/03/06 10:25:20;;;;;;;;;;;;;;;3.62;100.00;102844.03;5042060;28;19925;-69
2022/03/06 10:27:53;;;;;;;;;;;;;;;3.78;100.00;102845.16;5043262;28;19925;-69
2022/03/06 10:30:21;;;;;;;;;;;;;;;3.89;100.00;102846.22;5062953;28;19924;-69
2022/03/06 10:32:46;;;;;;;;;;;;;;;4.06;100.00;102850.91;5064237;28;19923;-69
2022/03/06 10:35:11;;;;;;;;;;;;;;;3.97;100.00;102849.88;5063297;28;19968;-69
2022/03/06 10:37:36;;;;;;;;;;;;;;;4.04;100.00;102843.81;5062555;28;19928;-69
2022/03/06 10:40:02;;;;;;;;;;;;;;;4.06;100.00;102853.53;5061738;28;19916;-69
2022/03/06 10:42:27;;;;;;;;;;;;;;;4.03;100.00;102857.84;5062772;28;20030;-69
2022/03/06 10:44:53;;;;;;;;;;;;;;;4.23;100.00;102856.41;5061052;28;19916;-68
2022/03/06 10:47:18;;;;;;;;;;;;;;;4.41;100.00;102856.69;5061845;28;20004;-69
2022/03/06 10:49:58;;;;;;;;;;;;;;;4.47;100.00;102855.03;5063369;28;19924;-69
2022/03/06 10:52:23;;;;;;;;;;;;;;;4.73;100.00;102858.00;5042493;28;19917;-68
2022/03/06 10:54:52;;;;;;;;;;;;;;;4.80;100.00;102851.97;5044871;28;19967;-69
2022/03/06 10:57:18;;;;;;;;;;;;;;;5.17;100.00;102848.03;5058853;28;19917;-69
2022/03/06 10:59:44;;;;;;;;;;;;;;;5.41;100.00;102846.53;5060286;28;20301;-69
2022/03/06 11:02:09;;;;;;;;;;;;;;;5.56;100.00;102853.72;5060518;28;19916;-69
2022/03/06 11:04:36;;;;;;;;;;;;;;;6.01;100.00;102849.75;5075662;28;19917;-68
2022/03/06 11:07:01;;;;;;;;;;;;;;;7.45;100.00;102854.00;5063597;28;19917;-69
2022/03/06 11:09:27;;;;;;;;;;;;;;;8.81;100.00;102849.50;5060600;28;19921;-69
2022/03/06 11:11:52;;;;;;;;;;;;;;;9.47;100.00;102851.81;5059689;28;19924;-69
2022/03/06 11:14:18;;;;;;;;;;;;;;;10.79;100.00;102853.31;5057953;28;19952;-69
2022/03/06 11:16:43;;;;;;;;;;;;;;;11.89;100.00;102853.56;5065504;28;19916;-71
2022/03/06 11:19:09;;;;;;;;;;;;;;;12.96;100.00;102856.91;5057396;28;19927;-69
2022/03/06 11:21:38;;;;;;;;;;;;;;;13.45;100.00;102865.66;5055506;28;19917;-72
2022/03/06 11:24:08;;;;;;;;;;;;;;;11.87;100.00;102874.91;5053232;28;20008;-71
2022/03/06 11:26:48;;;;;;;;;;;;;;;11.89;100.00;102867.78;5058884;28;19920;-70
2022/03/06 11:29:32;;;;;;;;;;;;;;;12.37;100.00;102879.38;5056874;28;19924;-69
2022/03/06 11:32:02;;;;;;;;;;;;;;;10.43;100.00;102874.94;5053769;28;19917;-69
2022/03/06 11:34:29;;;;;;;;;;;;;;;11.94;100.00;102878.34;5052294;28;20012;-69
2022/03/06 11:36:55;;;;;;;;;;;;;;;12.07;100.00;102875.44;5052450;28;19917;-69
2022/03/06 11:39:29;;;;;;;;;;;;;;;11.84;100.00;102882.94;5053973;28;19959;-69
2022/03/06 11:41:55;;;;;;;;;;;;;;;12.72;100.00;102878.72;5053631;28;19917;-69
2022/03/06 11:44:39;;;;;;;;;;;;;;;14.46;100.00;102874.75;5060922;28;19928;-70
2022/03/06 11:47:19;;;;;;;;;;;;;;;13.60;100.00;102878.63;5053085;28;19959;-70
2022/03/06 11:49:59;;;;;;;;;;;;;;;13.36;100.00;102874.72;5054129;28;20003;-70
2022/03/06 11:52:27;;;;;;;;;;;;;;;14.34;100.00;102867.03;5042726;28;19921;-69
2022/03/06 11:54:53;;;;;;;;;;;;;;;15.08;100.00;102870.34;5051149;28;19921;-70
2022/03/06 11:57:37;;;;;;;;;;;;;;;15.47;100.00;102865.59;5049304;28;19934;-70
2022/03/06 12:00:33;;;;;;;;;;;;;;;15.24;100.00;102861.78;5053938;28;19917;-70
2022/03/06 12:02:59;;;;;;;;;;;;;;;14.56;100.00;102857.50;5048590;28;19920;-69
2022/03/06 12:05:43;;;;;;;;;;;;;;;15.16;100.00;102860.25;5053298;28;20377;-69
2022/03/06 12:08:12;;;;;;;;;;;;;;;14.71;100.00;102857.13;5054233;28;19941;-69
2022/03/06 12:10:38;;;;;;;;;;;;;;;15.09;100.00;102856.00;5057045;28;20270;-72
2022/03/06 12:13:03;;;;;;;;;;;;;;;15.75;100.00;102853.09;5063850;28;19924;-70
2022/03/06 12:15:29;;;;;;;;;;;;;;;16.49;100.00;102838.06;5069668;28;20365;-71
2022/03/06 12:18:02;;;;;;;;;;;;;;;16.46;100.00;102830.13;5064722;28;19928;-71
2022/03/06 12:20:28;;;;;;;;;;;;;;;16.05;100.00;102854.75;5057129;28;19924;-71
2022/03/06 12:22:55;;;;;;;;;;;;;;;16.27;100.00;102840.59;5061469;28;19917;-69
2022/03/06 12:25:29;;;;;;;;;;;;;;;17.06;100.00;102837.72;5074041;28;20012;-70
2022/03/06 12:28:15;;;;;;;;;;;;;;;14.88;100.00;102849.47;5071641;28;19921;-68